Time;durP1;ratioP1;P1;durP2;ratioP2;P2;SDS_P1;SDS_P2;PMS_P1;PMS_P2;Temp;Humidity;BMP_temperature;BMP_pressure;BME280_temperature;BME280_humidity;BME280_pressure;Samples;Min_cycle;Max_cycle;Signal;HPM_P1;HPM_P2
2022/06/03 00:02:18;;;;;;;12.35;6.00;;;;;;;21.63;44.82;101720.75;5071598;28;20078;-81
2022/06/03 00:05:11;;;;;;;10.15;5.60;;;;;;;21.64;44.78;101725.13;5071716;28;20506;-80
2022/06/03 00:07:47;;;;;;;7.72;4.97;;;;;;;21.76;44.82;101727.75;5071159;28;20069;-80
2022/06/03 00:10:46;;;;;;;12.50;6.07;;;;;;;21.64;44.75;101729.91;5051071;28;20033;-80
2022/06/03 00:13:39;;;;;;;9.83;5.60;;;;;;;21.63;44.95;101736.63;5059614;28;20028;-82
2022/06/03 00:16:23;;;;;;;9.85;5.35;;;;;;;21.63;45.05;101734.66;5072593;28;20880;-80
2022/06/03 00:19:12;;;;;;;12.32;5.97;;;;;;;21.59;44.88;101729.00;5071103;28;20040;-81
2022/06/03 00:21:43;;;;;;;8.75;6.07;;;;;;;21.54;45.17;101736.84;5071037;28;20039;-81
2022/06/03 00:24:35;;;;;;;14.20;6.22;;;;;;;21.49;45.21;101732.38;5072223;28;20041;-81
2022/06/03 00:27:21;;;;;;;10.38;5.43;;;;;;;21.43;45.16;101733.00;5071557;28;20507;-81
2022/06/03 00:30:18;;;;;;;9.75;6.30;;;;;;;21.65;44.63;101731.50;5072096;28;20525;-81
2022/06/03 00:33:16;;;;;;;14.65;6.63;;;;;;;21.70;44.17;101736.78;5070886;28;20086;-81
2022/06/03 00:35:48;;;;;;;10.25;7.53;;;;;;;21.79;44.00;101731.81;5071082;28;20031;-81
2022/06/03 00:38:17;;;;;;;10.52;6.82;;;;;;;21.80;43.97;101734.22;5059474;28;20025;-81
2022/06/03 00:41:10;;;;;;;10.63;7.55;;;;;;;21.56;44.46;101732.53;5072318;28;20029;-82
2022/06/03 00:44:03;;;;;;;11.32;7.18;;;;;;;21.45;44.73;101731.47;5070781;28;20093;-80
2022/06/03 00:46:51;;;;;;;11.60;7.25;;;;;;;21.39;44.78;101727.38;5072292;28;20116;-81
2022/06/03 00:49:39;;;;;;;12.50;8.13;;;;;;;21.39;44.96;101730.16;5070609;28;20139;-82
2022/06/03 00:52:23;;;;;;;14.85;8.95;;;;;;;21.34;44.76;101730.44;5052375;28;20041;-81
2022/06/03 00:55:23;;;;;;;11.63;8.25;;;;;;;21.33;45.03;101726.03;5072113;28;20087;-81
2022/06/03 00:58:16;;;;;;;9.52;8.27;;;;;;;21.36;44.78;101730.06;5066722;28;20063;-81
2022/06/03 01:00:55;;;;;;;11.68;8.40;;;;;;;21.28;45.18;101737.44;5070799;28;20039;-81
2022/06/03 01:03:42;;;;;;;12.15;8.77;;;;;;;21.27;44.85;101741.34;5072264;28;20029;-81
2022/06/03 01:06:16;;;;;;;9.93;8.00;;;;;;;21.31;45.00;101736.69;5072007;28;20067;-81
2022/06/03 01:09:02;;;;;;;11.93;8.95;;;;;;;;;;5070788;28;20033;-79
2022/06/03 01:11:45;;;;;;;12.57;9.52;;;;;;;21.32;44.88;101735.56;5060792;28;20402;-81
2022/06/03 01:14:16;;;;;;;13.10;8.30;;;;;;;21.36;44.67;101744.78;5070450;28;20630;-81
2022/06/03 01:17:07;;;;;;;12.20;9.00;;;;;;;21.39;44.83;101744.06;5071863;28;20059;-81
2022/06/03 01:19:45;;;;;;;12.68;9.57;;;;;;;21.38;44.96;101753.53;5070342;28;20037;-80
2022/06/03 01:22:33;;;;;;;11.90;8.73;;;;;;;21.37;44.93;101748.34;5074648;28;20082;-80
2022/06/03 01:25:25;;;;;;;21.25;10.80;;;;;;;21.31;45.01;101745.88;5075797;28;20123;-80
2022/06/03 01:28:10;;;;;;;11.55;9.57;;;;;;;21.19;45.11;101753.47;5066718;28;20044;-81
2022/06/03 01:30:41;;;;;;;14.95;10.18;;;;;;;21.19;45.09;101751.50;5074311;28;20120;-80
2022/06/03 01:33:22;;;;;;;13.30;10.05;;;;;;;21.20;45.05;101752.31;5075655;28;20029;-81
2022/06/03 01:36:15;;;;;;;13.85;8.63;;;;;;;21.22;45.01;101750.78;5075532;28;20159;-80
2022/06/03 01:39:13;;;;;;;10.88;8.93;;;;;;;21.27;45.20;101749.69;5073991;28;20059;-79
2022/06/03 01:41:57;;;;;;;14.30;8.80;;;;;;;21.28;45.39;101754.13;5069873;28;20094;-81
2022/06/03 01:44:54;;;;;;;33.33;10.80;;;;;;;21.28;45.16;101751.34;5075335;28;20033;-81
2022/06/03 01:47:49;;;;;;;10.50;7.50;;;;;;;21.29;45.21;101747.38;5075383;28;20036;-81
2022/06/03 01:50:52;;;;;;;16.35;9.00;;;;;;;21.19;45.73;101743.16;5075130;28;20043;-80
2022/06/03 01:53:29;;;;;;;15.88;8.35;;;;;;;21.23;45.52;101734.91;5073843;28;20036;-80
2022/06/03 01:56:24;;;;;;;10.73;8.43;;;;;;;21.27;45.30;101742.19;5075174;28;20047;-80
2022/06/03 01:59:41;;;;;;;12.50;8.73;;;;;;;21.26;45.59;101742.53;5074258;28;20043;-81
2022/06/03 02:02:37;;;;;;;16.33;8.95;;;;;;;21.29;45.43;101737.06;5052491;28;20029;-82
2022/06/03 02:05:10;;;;;;;12.57;8.27;;;;;;;21.36;45.32;101736.44;5075045;28;20027;-81
2022/06/03 02:08:12;;;;;;;13.95;8.05;;;;;;;21.35;45.34;101740.38;5073725;28;20028;-80
2022/06/03 02:11:10;;;;;;;11.88;7.75;;;;;;;21.38;45.07;101736.88;5074878;28;20036;-80
2022/06/03 02:14:00;;;;;;;12.18;8.00;;;;;;;21.38;45.36;101736.06;5073263;28;20036;-80
2022/06/03 02:17:03;;;;;;;9.48;7.28;;;;;;;21.33;45.22;101737.97;5073162;28;20038;-81
2022/06/03 02:19:47;;;;;;;11.48;7.93;;;;;;;21.35;45.51;101731.25;5074599;28;20043;-81
2022/06/03 02:22:50;;;;;;;14.38;10.35;;;;;;;21.31;45.59;101736.69;5074869;28;20202;-82
2022/06/03 02:25:26;;;;;;;13.90;10.23;;;;;;;21.23;46.17;101743.22;5055456;28;20064;-81
2022/06/03 02:28:27;;;;;;;13.18;10.82;;;;;;;21.05;46.86;101738.06;5072534;28;20041;-80
2022/06/03 02:31:43;;;;;;;15.45;11.02;;;;;;;21.19;46.63;101740.38;5054557;28;20091;-80
2022/06/03 02:34:28;;;;;;;14.88;11.85;;;;;;;21.15;47.11;101735.91;5062095;28;20040;-81
2022/06/03 02:37:31;;;;;;;16.67;13.55;;;;;;;21.20;46.93;101738.41;5074254;28;20531;-80
2022/06/03 02:40:09;;;;;;;19.73;12.68;;;;;;;21.13;47.43;101729.91;5074041;28;20052;-80
2022/06/03 02:42:58;;;;;;;15.18;12.65;;;;;;;21.10;47.69;101739.78;5074160;28;20218;-80
2022/06/03 02:45:56;;;;;;;18.17;12.65;;;;;;;21.32;46.94;101735.56;5073155;28;20029;-81
2022/06/03 02:49:03;;;;;;;14.82;12.85;;;;;;;21.25;47.43;101735.38;5073744;28;20471;-81
2022/06/03 02:51:52;;;;;;;14.82;10.95;;;;;;;21.12;47.71;101733.84;5071981;28;20139;-80
2022/06/03 02:54:36;;;;;;;11.10;9.85;;;;;;;21.09;47.78;101727.06;5070724;28;20098;-80
2022/06/03 02:57:40;;;;;;;11.80;10.57;;;;;;;20.92;48.43;101731.00;5073808;28;20032;-79
2022/06/03 03:00:10;;;;;;;15.52;10.88;;;;;;;21.02;48.15;101732.44;5073687;28;20154;-81
2022/06/03 03:02:44;;;;;;;12.02;9.15;;;;;;;20.91;48.41;101732.16;5073855;28;20055;-81
2022/06/03 03:05:39;;;;;;;13.23;9.48;;;;;;;21.02;48.14;101730.47;5074050;28;20071;-82
2022/06/03 03:08:26;;;;;;;12.50;9.50;;;;;;;20.92;48.50;101731.00;5065057;28;20049;-80
2022/06/03 03:11:04;;;;;;;13.48;8.52;;;;;;;20.94;48.32;101723.13;5072473;28;20428;-81
2022/06/03 03:13:48;;;;;;;8.75;6.95;;;;;;;20.93;48.07;101726.25;5072285;28;20111;-80
2022/06/03 03:16:17;;;;;;;12.77;7.40;;;;;;;21.01;47.79;101728.06;5072517;28;20497;-81
2022/06/03 03:19:13;;;;;;;13.27;6.78;;;;;;;20.79;48.11;101732.28;5072173;28;20391;-81
2022/06/03 03:21:54;;;;;;;9.10;6.47;;;;;;;20.78;48.16;101725.09;5072238;28;20028;-81
2022/06/03 03:24:29;;;;;;;8.63;5.93;;;;;;;20.84;48.13;101729.22;5072256;28;20114;-80
2022/06/03 03:27:01;;;;;;;5.85;5.22;;;;;;;20.81;48.02;101729.94;5073195;28;20036;-81
2022/06/03 03:29:36;;;;;;;6.50;5.38;;;;;;;20.72;48.04;101729.31;5071908;28;20035;-81
2022/06/03 03:32:23;;;;;;;9.82;5.60;;;;;;;20.65;47.97;101726.34;5071737;28;20029;-81
2022/06/03 03:35:26;;;;;;;7.13;4.47;;;;;;;20.64;47.45;101733.06;5071785;28;20070;-80
2022/06/03 03:38:06;;;;;;;6.15;3.88;;;;;;;20.74;47.21;101735.31;5073261;28;20036;-81
2022/06/03 03:40:46;;;;;;;7.63;4.20;;;;;;;20.65;46.92;101731.91;5072772;28;20398;-81
2022/06/03 03:43:24;;;;;;;5.28;3.33;;;;;;;20.67;47.13;101730.38;5072859;28;20471;-80
2022/06/03 03:46:08;;;;;;;6.45;4.10;;;;;;;20.77;46.87;101731.81;5071702;28;20040;-80
2022/06/03 03:49:11;;;;;;;5.68;5.03;;;;;;;20.85;46.69;101736.38;5071577;28;20036;-82
2022/06/03 03:51:57;;;;;;;5.63;4.50;;;;;;;20.93;46.50;101738.19;5072877;28;20382;-81
2022/06/03 03:54:40;;;;;;;6.85;4.82;;;;;;;20.99;46.52;101738.69;5072782;28;20043;-81
2022/06/03 03:57:37;;;;;;;8.85;5.38;;;;;;;20.99;46.38;101738.69;5072648;28;20033;-80
2022/06/03 04:00:06;;;;;;;9.77;5.88;;;;;;;21.08;46.56;101730.16;5071336;28;20036;-81
2022/06/03 04:03:08;;;;;;;8.48;6.30;;;;;;;21.02;46.72;101735.22;5072778;28;20036;-81
2022/06/03 04:06:05;;;;;;;6.88;6.18;;;;;;;21.14;46.32;101737.06;5064876;28;20032;-80
2022/06/03 04:08:46;;;;;;;7.00;5.57;;;;;;;21.17;46.23;101739.94;5072649;28;20557;-81
2022/06/03 04:11:49;;;;;;;6.20;5.60;;;;;;;21.20;46.44;101744.78;5071432;28;20029;-80
2022/06/03 04:14:39;;;;;;;12.32;8.50;;;;;;;21.18;46.36;101741.56;5072447;28;20406;-81
2022/06/03 04:17:10;;;;;;;;;;;;;;;21.19;46.39;101739.59;5073013;28;20055;-81
2022/06/03 04:19:54;;;;;;;11.43;9.35;;;;;;;;;;5072362;28;20289;-81
2022/06/03 04:22:55;;;;;;;15.95;10.90;;;;;;;21.29;46.35;101739.03;5071447;28;20079;-80
2022/06/03 04:25:54;;;;;;;12.18;10.77;;;;;;;21.32;46.50;101741.94;5032599;28;20107;-81
2022/06/03 04:28:43;;;;;;;12.85;11.13;;;;;;;21.37;46.30;101735.25;5071097;28;20487;-80
2022/06/03 04:31:46;;;;;;;13.15;11.77;;;;;;;21.42;46.61;101735.00;5069170;28;20060;-80
2022/06/03 04:34:33;;;;;;;11.15;10.02;;;;;;;21.42;46.40;101734.19;5070854;28;20406;-80
2022/06/03 04:37:07;;;;;;;11.18;9.10;;;;;;;21.43;46.32;101736.59;5072139;28;20035;-81
2022/06/03 04:40:17;;;;;;;12.90;10.40;;;;;;;21.34;46.70;101733.22;5071914;28;20525;-80
2022/06/03 04:43:15;;;;;;;15.48;12.80;;;;;;;21.36;46.49;101728.09;5069006;28;20064;-80
2022/06/03 04:46:00;;;;;;;21.58;14.85;;;;;;;21.32;46.78;101738.34;5053234;28;20028;-81
2022/06/03 04:49:04;;;;;;;17.48;13.73;;;;;;;21.31;46.72;101733.91;5072273;28;20025;-81
2022/06/03 04:52:05;;;;;;;20.85;15.95;;;;;;;21.25;46.40;101741.72;5068448;28;20391;-81
2022/06/03 04:55:25;;;;;;;20.38;13.32;;;;;;;21.19;46.76;101740.38;5070803;28;20029;-80
2022/06/03 04:58:09;;;;;;;22.45;17.83;;;;;;;21.23;46.45;101734.91;5037190;28;20589;-80
2022/06/03 05:01:06;;;;;;;23.30;17.75;;;;;;;21.19;46.45;101734.03;5058306;28;20044;-81
2022/06/03 05:04:18;;;;;;;21.10;17.35;;;;;;;21.20;46.58;101744.78;5076186;28;20044;-80
2022/06/03 05:07:24;;;;;;;22.27;17.35;;;;;;;21.14;46.63;101734.28;5056393;28;20035;-82
2022/06/03 05:10:04;;;;;;;20.85;16.83;;;;;;;21.20;46.41;101739.22;5068994;28;20363;-81
2022/06/03 05:12:42;;;;;;;22.85;18.15;;;;;;;21.22;46.39;101742.44;5075315;28;20070;-79
2022/06/03 05:15:29;;;;;;;27.80;17.65;;;;;;;21.25;46.43;101738.94;5056083;28;20036;-79
2022/06/03 05:18:01;;;;;;;24.50;20.20;;;;;;;21.19;46.71;101736.81;5058527;28;20032;-82
2022/06/03 05:20:47;;;;;;;24.48;19.45;;;;;;;21.04;47.36;101744.78;5075403;28;20021;-82
2022/06/03 05:23:41;;;;;;;20.35;17.02;;;;;;;21.16;46.82;101745.84;5074378;28;20035;-80
2022/06/03 05:26:21;;;;;;;22.13;14.73;;;;;;;21.09;46.89;101740.16;5071672;28;20025;-80
2022/06/03 05:29:11;;;;;;;15.52;13.27;;;;;;;21.06;46.63;101742.47;5074107;28;20025;-79
2022/06/03 05:32:09;;;;;;;16.20;13.25;;;;;;;21.00;46.73;101743.09;5074180;28;20040;-81
2022/06/03 05:34:56;;;;;;;17.73;13.32;;;;;;;21.06;46.67;101742.47;5074786;28;20109;-79
2022/06/03 05:37:51;;;;;;;17.95;12.55;;;;;;;21.01;46.91;101745.53;5075713;28;20021;-80
2022/06/03 05:40:42;;;;;;;18.90;12.95;;;;;;;21.01;46.80;101742.75;5075146;28;20525;-79
2022/06/03 05:43:47;;;;;;;16.48;12.18;;;;;;;21.00;46.85;101743.88;5075390;28;20394;-79
2022/06/03 05:46:18;;;;;;;15.68;12.88;;;;;;;21.00;46.72;101743.09;5064191;28;20043;-80
2022/06/03 05:48:51;;;;;;;15.52;13.23;;;;;;;21.07;46.82;101748.81;5075198;28;20032;-80
2022/06/03 05:51:35;;;;;;;20.10;13.65;;;;;;;21.13;46.46;101744.59;5070896;28;20044;-82
2022/06/03 05:54:34;;;;;;;17.08;12.48;;;;;;;21.11;46.73;101749.72;5073761;28;20024;-80
2022/06/03 05:57:08;;;;;;;17.20;12.85;;;;;;;21.11;46.75;101754.47;5064677;28;20045;-82
2022/06/03 06:00:12;;;;;;;17.73;13.15;;;;;;;21.08;47.15;101749.63;5073454;28;20032;-81
2022/06/03 06:02:54;;;;;;;14.65;11.63;;;;;;;21.11;47.20;101748.91;5052346;28;20036;-81
2022/06/03 06:05:29;;;;;;;16.15;13.05;;;;;;;21.17;46.75;101748.28;5052437;28;20049;-82
2022/06/03 06:08:14;;;;;;;18.92;15.15;;;;;;;21.19;46.72;101751.50;5068258;28;20041;-81
2022/06/03 06:11:03;;;;;;;20.35;15.70;;;;;;;21.27;47.07;101752.47;5074807;28;20020;-79
2022/06/03 06:13:57;;;;;;;20.08;16.13;;;;;;;21.27;46.77;101752.47;5074183;28;20112;-79
2022/06/03 06:16:30;;;;;;;21.30;17.48;;;;;;;21.29;46.82;101741.81;5071033;28;20027;-82
2022/06/03 06:19:09;;;;;;;23.27;18.45;;;;;;;21.31;46.93;101754.22;5069556;28;20083;-80
2022/06/03 06:22:12;;;;;;;22.37;17.60;;;;;;;21.36;47.24;101750.34;5074639;28;20548;-81
2022/06/03 06:25:05;;;;;;;28.13;19.42;;;;;;;21.46;47.26;101755.34;5072896;28;20790;-80
2022/06/03 06:28:00;;;;;;;26.48;21.67;;;;;;;21.50;47.01;101752.63;5068892;28;20033;-81
2022/06/03 06:30:58;;;;;;;29.58;21.95;;;;;;;21.54;47.34;101754.34;5058441;28;20067;-81
2022/06/03 06:33:36;;;;;;;28.70;22.55;;;;;;;21.63;47.25;101756.09;5072925;28;20016;-80
2022/06/03 06:36:23;;;;;;;28.60;21.77;;;;;;;21.68;47.42;101762.16;5072629;28;20056;-80
2022/06/03 06:39:08;;;;;;;28.58;22.20;;;;;;;21.70;47.68;101751.50;5073007;28;20507;-81
2022/06/03 06:42:06;;;;;;;30.35;21.30;;;;;;;21.73;48.00;101756.31;5065466;28;20058;-80
2022/06/03 06:44:39;;;;;;;25.83;20.67;;;;;;;21.86;47.45;101759.78;5057626;28;20107;-81
2022/06/03 06:47:19;;;;;;;27.50;20.55;;;;;;;21.92;47.94;101763.09;5058660;28;20085;-82
2022/06/03 06:50:14;;;;;;;23.48;17.05;;;;;;;21.99;48.17;101766.81;5056996;28;20033;-80
2022/06/03 06:52:49;;;;;;;25.45;16.90;;;;;;;22.00;47.98;101768.44;5057655;28;20032;-80
2022/06/03 06:55:26;;;;;;;17.77;15.60;;;;;;;21.97;48.30;101771.13;5058233;28;20312;-80
2022/06/03 06:57:58;;;;;;;20.48;15.93;;;;;;;21.94;48.65;101772.66;5058385;28;20060;-81
2022/06/03 07:00:32;;;;;;;18.85;15.02;;;;;;;22.04;48.61;101776.84;5057975;28;20388;-81
2022/06/03 07:03:15;;;;;;;17.67;14.27;;;;;;;22.08;48.93;101777.75;5055656;28;20024;-81
2022/06/03 07:05:57;;;;;;;17.38;14.68;;;;;;;22.07;49.26;101787.25;5057718;28;20501;-80
2022/06/03 07:08:45;;;;;;;20.20;16.40;;;;;;;22.17;48.97;101783.91;5056993;28;20024;-81
2022/06/03 07:11:27;;;;;;;15.07;13.07;;;;;;;22.21;48.61;101792.31;5056283;28;20020;-80
2022/06/03 07:13:58;;;;;;;22.95;15.80;;;;;;;22.09;49.29;101791.31;5071963;28;20089;-83
2022/06/03 07:19:51;;;;;;;17.05;14.32;;;;;;;22.19;48.83;101791.88;5072303;28;20183;-80
2022/06/03 07:22:17;;;;;;;17.15;15.35;;;;;;;22.17;48.84;101802.59;5072468;28;20604;-82
2022/06/03 07:24:57;;;;;;;16.55;14.80;;;;;;;22.05;48.81;101801.50;5071891;28;20142;-82
2022/06/03 07:27:44;;;;;;;17.10;15.40;;;;;;;22.12;48.74;101809.25;5073335;28;20099;-81
2022/06/03 07:30:17;;;;;;;20.63;17.73;;;;;;;22.17;48.58;101805.38;5072984;28;20025;-80
2022/06/03 07:32:58;;;;;;;16.45;14.75;;;;;;;22.11;48.53;101802.88;5073162;28;20020;-80
2022/06/03 07:35:45;;;;;;;16.63;13.60;;;;;;;22.18;48.31;101805.00;5073304;28;20021;-80
2022/06/03 07:38:37;;;;;;;16.27;13.15;;;;;;;22.10;48.37;101812.41;5072114;28;20028;-80
2022/06/03 07:41:39;;;;;;;16.90;13.45;;;;;;;22.12;48.37;101815.63;5072192;28;20035;-80
2022/06/03 07:44:36;;;;;;;15.70;13.27;;;;;;;22.25;48.42;101815.47;5069346;28;20047;-81
2022/06/03 07:47:06;;;;;;;15.85;14.23;;;;;;;22.26;48.00;101817.09;5051275;28;20044;-84
2022/06/03 07:49:36;;;;;;;15.55;13.77;;;;;;;22.27;48.01;101825.06;5068970;28;20028;-81
2022/06/03 07:52:22;;;;;;;14.02;12.55;;;;;;;22.35;48.13;101823.22;5072909;28;20482;-81
2022/06/03 07:54:55;;;;;;;17.40;13.80;;;;;;;22.49;47.80;101819.94;5072936;28;20027;-81
2022/06/03 07:57:25;;;;;;;14.02;12.55;;;;;;;22.60;48.11;101816.19;5073024;28;20024;-81
2022/06/03 07:59:56;;;;;;;12.70;11.50;;;;;;;22.65;48.26;101823.41;5072925;28;20032;-80
2022/06/03 08:02:23;;;;;;;14.77;11.57;;;;;;;23.04;47.58;101826.13;5072455;28;20052;-81
2022/06/03 08:05:08;;;;;;;11.93;10.70;;;;;;;23.13;47.82;101829.50;5072447;28;20062;-82
2022/06/03 08:13:17;;;;;;;12.48;8.90;;;;;;;23.32;47.45;101823.81;5072448;28;20027;-83
2022/06/03 08:15:59;;;;;;;11.85;9.05;;;;;;;23.42;47.02;101828.75;5071962;28;20032;-83
2022/06/03 08:18:29;;;;;;;10.80;6.85;;;;;;;23.42;47.33;101831.53;5070153;28;20032;-82
2022/06/03 08:21:03;;;;;;;10.52;6.90;;;;;;;23.35;47.20;101828.66;5072490;28;20050;-81
2022/06/03 08:23:33;;;;;;;18.60;15.75;;;;;;;23.38;47.08;101841.03;5072611;28;20479;-82
2022/06/03 08:26:00;;;;;;;;;;;;;;;23.29;47.14;101835.72;5072146;28;20416;-81
2022/06/03 08:28:31;;;;;;;10.65;7.20;;;;;;;23.35;46.81;101837.03;5071182;28;20382;-81
2022/06/03 08:30:59;;;;;;;8.48;6.47;;;;;;;23.31;47.15;101840.94;5072302;28;20051;-81
2022/06/03 08:33:38;;;;;;;10.32;7.35;;;;;;;23.10;47.09;101842.16;5071170;28;20032;-82
2022/06/03 08:36:04;;;;;;;11.50;6.30;;;;;;;23.19;46.86;101848.28;5070687;28;20036;-81
2022/06/03 08:38:41;;;;;;;12.43;6.28;;;;;;;23.18;46.84;101846.69;5071347;28;20052;-82
2022/06/03 08:41:37;;;;;;;11.43;6.47;;;;;;;23.13;46.70;101852.59;5071634;28;20113;-81
2022/06/03 08:44:26;;;;;;;9.80;6.00;;;;;;;23.05;47.23;101853.66;5071027;28;20047;-81
2022/06/03 08:47:15;;;;;;;11.30;5.85;;;;;;;22.93;47.16;101862.19;5070605;28;20467;-81
2022/06/03 08:50:21;;;;;;;13.63;4.85;;;;;;;22.96;47.90;101864.22;5072142;28;20033;-82
2022/06/03 08:53:05;;;;;;;8.15;4.97;;;;;;;23.08;47.68;101866.84;5070811;28;20081;-81
2022/06/03 08:55:40;;;;;;;11.10;5.72;;;;;;;23.44;47.96;101862.66;5072346;28;20031;-82
2022/06/03 08:58:35;;;;;;;10.60;5.30;;;;;;;23.51;47.64;101854.41;5071484;28;20029;-81
2022/06/03 09:01:07;;;;;;;8.88;4.65;;;;;;;23.65;47.51;101858.63;5070908;28;20036;-81
2022/06/03 09:03:45;;;;;;;8.93;3.67;;;;;;;23.82;47.74;101865.66;5071023;28;20056;-81
2022/06/03 09:06:32;;;;;;;8.07;3.97;;;;;;;23.95;47.79;101864.22;5069676;28;20112;-81
2022/06/03 09:09:17;;;;;;;7.20;3.60;;;;;;;24.00;47.12;101864.72;5072379;28;20032;-82
2022/06/03 09:11:50;;;;;;;5.22;3.78;;;;;;;23.77;47.38;101864.00;5072836;28;20070;-81
2022/06/03 09:14:24;;;;;;;11.38;3.75;;;;;;;24.12;46.66;101871.28;5070934;28;20024;-81
2022/06/03 09:16:55;;;;;;;11.45;3.45;;;;;;;24.22;46.67;101879.78;5059594;28;20620;-81
2022/06/03 09:19:30;;;;;;;9.60;3.03;;;;;;;24.24;46.29;101877.41;5057189;28;20107;-82
2022/06/03 09:22:09;;;;;;;9.48;3.90;;;;;;;24.32;46.04;101876.34;5055725;28;20037;-81
2022/06/03 09:24:37;;;;;;;8.60;3.88;;;;;;;24.13;46.21;101882.06;5060114;28;20021;-81
2022/06/03 09:27:04;;;;;;;7.45;3.03;;;;;;;24.12;45.87;101880.44;5070501;28;20032;-81
2022/06/03 09:29:30;;;;;;;7.72;3.40;;;;;;;24.21;45.41;101888.53;5071914;28;20024;-82
2022/06/03 09:32:01;;;;;;;6.60;3.60;;;;;;;24.22;45.54;101890.16;5072021;28;20029;-82
2022/06/03 09:34:40;;;;;;;8.27;3.17;;;;;;;24.26;45.37;101891.81;5070763;28;20056;-81
2022/06/03 09:37:06;;;;;;;15.73;4.05;;;;;;;24.20;45.41;101887.72;5071996;28;20017;-82
2022/06/03 09:39:32;;;;;;;4.25;2.80;;;;;;;24.33;45.02;101891.94;5070169;28;20376;-80
2022/06/03 09:41:59;;;;;;;9.32;3.40;;;;;;;24.33;45.42;101896.69;5071352;28;20082;-80
2022/06/03 09:44:26;;;;;;;8.20;3.38;;;;;;;24.48;45.23;101901.28;5074160;28;20056;-80
2022/06/03 09:47:08;;;;;;;11.85;3.83;;;;;;;24.71;45.11;101903.13;5074081;28;20533;-80
2022/06/03 09:49:34;;;;;;;9.77;3.92;;;;;;;24.96;44.75;101895.84;5075465;28;20020;-80
2022/06/03 09:52:02;;;;;;;8.65;3.40;;;;;;;24.64;44.81;101912.25;5073931;28;20085;-80
2022/06/03 09:54:43;;;;;;;6.10;3.30;;;;;;;24.79;43.59;101900.06;5075547;28;20035;-81
2022/06/03 09:57:38;;;;;;;6.90;2.55;;;;;;;24.89;44.10;101901.34;5075417;28;20078;-79
2022/06/03 10:00:22;;;;;;;7.25;2.65;;;;;;;24.83;43.50;101906.47;5069267;28;20090;-81
2022/06/03 10:02:48;;;;;;;12.63;4.30;;;;;;;24.95;43.76;101907.41;5075215;28;20047;-81
2022/06/03 10:05:17;;;;;;;9.27;3.05;;;;;;;24.99;43.95;101911.03;5074031;28;20039;-82
2022/06/03 10:07:45;;;;;;;9.35;3.60;;;;;;;25.12;43.76;101915.19;5073513;28;20025;-81
2022/06/03 10:13:00;;;;;;;6.90;2.53;;;;;;;25.17;43.35;101917.66;5075201;28;20047;-82
2022/06/03 10:15:39;;;;;;;7.45;2.92;;;;;;;24.90;43.17;101912.16;5075041;28;20111;-83
2022/06/03 10:18:18;;;;;;;11.10;2.97;;;;;;;25.00;43.14;101921.84;5075280;28;20510;-82
2022/06/03 10:20:44;;;;;;;8.75;2.63;;;;;;;24.99;43.25;101933.41;5075311;28;20031;-79
2022/06/03 10:23:11;;;;;;;10.45;2.45;;;;;;;25.31;42.53;101928.16;5073489;28;20108;-80
2022/06/03 10:25:39;;;;;;;9.68;2.10;;;;;;;25.24;42.71;101931.72;5074561;28;20028;-80
2022/06/03 10:28:07;;;;;;;8.30;2.05;;;;;;;25.04;42.70;101941.50;5073364;28;20119;-80
2022/06/03 10:30:35;;;;;;;10.52;2.95;;;;;;;24.95;42.02;101944.56;5073606;28;20016;-80
2022/06/03 10:33:01;;;;;;;8.35;2.88;;;;;;;25.16;41.93;101938.41;5073130;28;20024;-80
2022/06/03 10:35:28;;;;;;;4.55;2.03;;;;;;;25.37;41.55;101938.59;5074746;28;20044;-80
2022/06/03 10:38:03;;;;;;;13.93;2.65;;;;;;;25.43;41.70;101944.66;5072053;28;20028;-79
2022/06/03 10:40:30;;;;;;;5.68;2.45;;;;;;;25.35;41.74;101948.59;5072751;28;20586;-80
2022/06/03 10:43:02;;;;;;;7.07;2.60;;;;;;;25.49;40.95;101939.53;5072729;28;20482;-80
2022/06/03 10:45:30;;;;;;;9.38;1.92;;;;;;;25.55;41.04;101929.59;5074581;28;20025;-81
2022/06/03 10:47:57;;;;;;;11.63;1.88;;;;;;;25.46;40.64;101941.88;5074463;28;20090;-81
2022/06/03 10:50:38;;;;;;;4.93;2.00;;;;;;;25.31;40.77;101942.94;5074467;28;20032;-81
2022/06/03 11:01:51;;;;;;;6.60;1.88;;;;;;;25.38;40.52;101939.41;5074249;28;20086;-81
2022/06/03 11:04:37;;;;;;;5.40;1.95;;;;;;;25.40;40.75;101954.63;5074133;28;20027;-81
2022/06/03 11:07:24;;;;;;;6.63;2.35;;;;;;;25.54;40.45;101939.94;5072893;28;20025;-81
2022/06/03 11:09:55;;;;;;;8.27;2.70;;;;;;;25.55;40.42;101944.38;5072769;28;20021;-80
2022/06/03 11:12:26;;;;;;;8.15;2.30;;;;;;;25.45;40.15;101950.66;5074053;28;20493;-80
2022/06/03 11:14:51;;;;;;;8.60;1.83;;;;;;;25.62;40.03;101950.03;5073709;28;20025;-81
2022/06/03 11:17:19;;;;;;;6.63;1.85;;;;;;;25.75;40.10;101947.75;5074102;28;20104;-80
2022/06/03 11:19:48;;;;;;;4.93;2.50;;;;;;;25.72;40.27;101959.75;5073692;28;20040;-80
2022/06/03 11:22:20;;;;;;;6.80;1.70;;;;;;;25.69;39.84;101949.28;5073768;28;20492;-80
2022/06/03 11:24:56;;;;;;;4.95;1.75;;;;;;;25.64;39.51;101960.84;5072419;28;20258;-80
2022/06/03 11:27:30;;;;;;;7.28;1.95;;;;;;;25.75;39.85;101956.16;5073690;28;20047;-81
2022/06/03 11:30:02;;;;;;;10.43;2.80;;;;;;;25.75;40.37;101956.16;5073523;28;20021;-80
2022/06/03 11:32:30;;;;;;;6.82;2.22;;;;;;;25.56;40.49;101961.97;5073486;28;20024;-80
2022/06/03 11:35:07;;;;;;;8.35;2.53;;;;;;;25.53;40.37;101959.94;5073252;28;20047;-80
2022/06/03 11:37:38;;;;;;;12.95;3.08;;;;;;;25.44;40.37;101955.47;5073527;28;20043;-80
2022/06/03 11:40:15;;;;;;;4.80;2.20;;;;;;;25.36;40.53;101955.78;5071067;28;20414;-80
2022/06/03 11:42:46;;;;;;;6.32;2.20;;;;;;;25.31;40.93;101958.94;5073394;28;20025;-79
2022/06/03 11:45:17;;;;;;;5.38;2.13;;;;;;;25.33;41.04;101962.16;5072132;28;20032;-80
2022/06/03 11:47:53;;;;;;;7.85;2.70;;;;;;;25.16;41.38;101966.38;5073673;28;20483;-81
2022/06/03 11:50:24;;;;;;;9.23;3.13;;;;;;;25.21;41.09;101962.44;5071551;28;20032;-80
2022/06/03 11:52:52;;;;;;;7.75;3.17;;;;;;;25.28;41.44;101960.50;5072216;28;20036;-80
2022/06/03 11:55:20;;;;;;;4.95;1.80;;;;;;;25.15;41.97;101964.75;5071475;28;20078;-81
2022/06/03 11:58:01;;;;;;;3.28;2.40;;;;;;;25.07;41.86;101960.28;5075515;28;20038;-81
2022/06/03 12:00:32;;;;;;;4.85;2.00;;;;;;;25.07;41.88;101963.06;5083556;28;20032;-81
2022/06/03 12:03:09;;;;;;;4.38;1.70;;;;;;;24.98;42.58;101966.16;5072830;28;20055;-81
2022/06/03 12:05:48;;;;;;;5.35;1.90;;;;;;;24.85;42.52;101962.00;5071175;28;20033;-81
2022/06/03 12:08:48;;;;;;;6.18;2.85;;;;;;;25.28;42.36;101956.91;5070009;28;20132;-82
2022/06/03 12:13:14;;;;;;;;;;;;;;;25.14;42.64;101960.34;5070231;28;20080;-81
2022/06/03 12:14:33;;;;;;;6.20;2.28;;;;;;;25.29;42.04;101964.09;5072189;28;19923;-81
2022/06/03 12:17:22;;;;;;;7.85;2.22;;;;;;;25.16;41.66;101963.56;5087744;28;20044;-81
2022/06/03 12:19:51;;;;;;;4.72;2.10;;;;;;;25.08;42.56;101965.47;5091626;28;20031;-81
2022/06/03 12:22:30;;;;;;;6.82;2.88;;;;;;;25.12;42.30;101965.53;5092959;28;20485;-81
2022/06/03 12:24:58;;;;;;;4.40;1.70;;;;;;;24.81;42.44;101967.56;5091920;28;20054;-81
2022/06/03 12:27:31;;;;;;;3.30;1.90;;;;;;;25.00;41.94;101960.97;5093169;28;20039;-81
2022/06/03 12:30:13;;;;;;;7.80;3.28;;;;;;;25.16;42.38;101971.97;5081972;28;20028;-81
2022/06/03 12:32:46;;;;;;;3.83;2.47;;;;;;;25.39;42.61;101971.78;5058170;28;20510;-82
2022/06/03 12:35:58;;;;;;;4.32;2.88;;;;;;;25.17;42.23;101976.38;5055792;28;20033;-82
2022/06/03 12:38:23;;;;;;;3.50;2.33;;;;;;;25.33;42.15;101976.16;5027441;28;20033;-82
2022/06/03 12:40:55;;;;;;;4.65;2.40;;;;;;;24.97;42.33;101978.53;5054954;28;20608;-82
2022/06/03 12:43:47;;;;;;;6.05;2.80;;;;;;;24.92;42.63;101979.66;5055934;28;20023;-81
2022/06/03 12:46:44;;;;;;;4.38;2.00;;;;;;;25.21;42.35;101988.41;5045371;28;20037;-81
2022/06/03 12:49:37;;;;;;;3.78;1.83;;;;;;;25.24;42.58;101990.44;5054458;28;20031;-81
2022/06/03 12:52:08;;;;;;;4.72;2.10;;;;;;;24.98;42.62;101984.91;5056780;28;20550;-81